Time,TemperatureF,DewpointF,PressureIn,WindDirection,WindDirectionDegrees,WindSpeedMPH,WindSpeedGustMPH,Humidity,HourlyPrecipIn,Conditions,Clouds,dailyrainin,SolarRadiationWatts/m^2,SoftwareType,DateUTC
2013-01-17 00:05:00,29.0,25.0,-100.00,WNW,297,3.0,9.0,86,0.00,,,0.00,0.000000,,2013-01-17 05:05:00,
2013-01-17 00:33:00,28.0,25.0,-100.00,WNW,302,3.0,8.0,88,0.00,,,0.00,0.000000,,2013-01-17 05:33:00,
2013-01-17 00:43:00,28.0,25.0,-100.00,WNW,302,3.0,8.0,88,0.00,,,0.00,0.000000,,2013-01-17 05:43:00,
2013-01-17 00:53:00,28.0,25.0,-100.00,WNW,302,3.0,8.0,88,0.00,,,0.00,0.000000,,2013-01-17 05:53:00,
2013-01-17 01:03:00,28.0,25.0,-100.00,WNW,302,3.0,8.0,88,0.00,,,0.00,0.000000,,2013-01-17 06:03:00,
2013-01-17 01:33:00,28.0,25.0,-100.00,WNW,300,3.0,9.0,87,0.00,,,0.00,0.000000,,2013-01-17 06:33:00,
2013-01-17 01:42:00,28.0,25.0,-100.00,WNW,300,3.0,9.0,87,0.00,,,0.00,0.000000,,2013-01-17 06:42:00,
2013-01-17 01:53:00,28.0,25.0,-100.00,WNW,300,3.0,9.0,87,0.00,,,0.00,0.000000,,2013-01-17 06:53:00,
2013-01-17 02:02:00,28.0,25.0,-100.00,WNW,300,3.0,9.0,87,0.00,,,0.00,0.000000,,2013-01-17 07:02:00,
2013-01-17 02:33:00,29.0,24.0,-100.00,NW,318,4.0,11.0,82,0.00,,,0.00,0.000000,,2013-01-17 07:33:00,
2013-01-17 02:43:00,29.0,24.0,-100.00,NW,318,4.0,11.0,82,0.00,,,0.00,0.000000,,2013-01-17 07:43:00,
2013-01-17 02:53:00,29.0,24.0,-100.00,NW,318,4.0,11.0,82,0.00,,,0.00,0.000000,,2013-01-17 07:53:00,
2013-01-17 03:02:00,29.0,24.0,-100.00,NW,318,4.0,11.0,82,0.00,,,0.00,0.000000,,2013-01-17 08:02:00,
2013-01-17 03:32:00,29.0,25.0,-100.00,WNW,300,4.0,11.0,83,0.00,,,0.00,0.000000,,2013-01-17 08:32:00,
2013-01-17 03:43:00,29.0,25.0,-100.00,WNW,300,4.0,11.0,83,0.00,,,0.00,0.000000,,2013-01-17 08:43:00,
2013-01-17 03:53:00,29.0,25.0,-100.00,WNW,300,4.0,11.0,83,0.00,,,0.00,0.000000,,2013-01-17 08:53:00,
2013-01-17 04:03:00,29.0,25.0,-100.00,WNW,300,4.0,11.0,83,0.00,,,0.00,0.000000,,2013-01-17 09:03:00,
2013-01-17 04:33:00,29.0,24.0,-100.00,WNW,301,5.0,13.0,82,0.00,,,0.00,0.000000,,2013-01-17 09:33:00,
2013-01-17 04:43:00,29.0,24.0,-100.00,WNW,301,5.0,13.0,82,0.00,,,0.00,0.000000,,2013-01-17 09:43:00,
2013-01-17 04:53:00,29.0,24.0,-100.00,WNW,301,5.0,13.0,82,0.00,,,0.00,0.000000,,2013-01-17 09:53:00,
2013-01-17 05:02:00,29.0,24.0,-100.00,WNW,301,5.0,13.0,82,0.00,,,0.00,0.000000,,2013-01-17 10:02:00,
2013-01-17 05:33:00,29.0,25.0,-100.00,WNW,288,5.0,14.0,84,0.00,,,0.00,0.000000,,2013-01-17 10:33:00,
2013-01-17 05:43:00,29.0,25.0,-100.00,WNW,288,5.0,14.0,84,0.00,,,0.00,0.000000,,2013-01-17 10:43:00,
2013-01-17 05:53:00,29.0,25.0,-100.00,WNW,288,5.0,14.0,84,0.00,,,0.00,0.000000,,2013-01-17 10:53:00,
2013-01-17 06:03:00,29.0,25.0,-100.00,WNW,288,5.0,14.0,84,0.00,,,0.00,0.000000,,2013-01-17 11:03:00,
2013-01-17 06:33:00,29.0,25.0,-100.00,WNW,301,3.0,9.0,85,0.00,,,0.00,0.000000,,2013-01-17 11:33:00,
2013-01-17 06:43:00,29.0,25.0,-100.00,WNW,301,3.0,9.0,85,0.00,,,0.00,0.000000,,2013-01-17 11:43:00,
2013-01-17 06:53:00,29.0,25.0,-100.00,WNW,301,3.0,9.0,85,0.00,,,0.00,0.000000,,2013-01-17 11:53:00,
2013-01-17 07:02:00,29.0,25.0,-100.00,WNW,301,3.0,9.0,85,0.00,,,0.00,0.000000,,2013-01-17 12:02:00,
2013-01-17 07:33:00,29.0,26.0,-100.00,WNW,300,3.0,9.0,87,0.00,,,0.00,0.000000,,2013-01-17 12:33:00,
2013-01-17 07:43:00,29.0,26.0,-100.00,WNW,300,3.0,9.0,87,0.00,,,0.00,0.000000,,2013-01-17 12:43:00,
2013-01-17 07:53:00,29.0,26.0,-100.00,WNW,300,3.0,9.0,87,0.00,,,0.00,0.000000,,2013-01-17 12:53:00,
2013-01-17 08:03:00,29.0,26.0,-100.00,WNW,300,3.0,9.0,87,0.00,,,0.00,0.000000,,2013-01-17 13:03:00,
2013-01-17 08:33:00,29.0,26.0,-100.00,WNW,291,3.0,8.0,87,0.00,,,0.00,0.000000,,2013-01-17 13:33:00,
2013-01-17 08:43:00,29.0,26.0,-100.00,WNW,291,3.0,8.0,87,0.00,,,0.00,0.000000,,2013-01-17 13:43:00,
2013-01-17 08:53:00,29.0,26.0,-100.00,WNW,291,3.0,8.0,87,0.00,,,0.00,0.000000,,2013-01-17 13:53:00,
2013-01-17 09:03:00,29.0,26.0,-100.00,WNW,291,3.0,8.0,87,0.00,,,0.00,0.000000,,2013-01-17 14:03:00,
2013-01-17 09:33:00,29.0,26.0,-100.00,WNW,294,4.0,10.0,87,0.00,,,0.00,3.000000,,2013-01-17 14:33:00,
2013-01-17 09:43:00,29.0,26.0,-100.00,WNW,294,4.0,10.0,87,0.00,,,0.00,3.000000,,2013-01-17 14:43:00,
2013-01-17 09:53:00,29.0,26.0,-100.00,WNW,294,4.0,10.0,87,0.00,,,0.00,3.000000,,2013-01-17 14:53:00,
2013-01-17 10:03:00,29.0,26.0,-100.00,WNW,294,4.0,10.0,87,0.00,,,0.00,3.000000,,2013-01-17 15:03:00,
2013-01-17 10:33:00,31.0,27.0,-100.00,WNW,283,5.0,8.0,85,0.00,,,0.00,12.000000,,2013-01-17 15:33:00,
2013-01-17 10:43:00,31.0,27.0,-100.00,WNW,283,5.0,8.0,85,0.00,,,0.00,12.000000,,2013-01-17 15:43:00,
2013-01-17 10:53:00,31.0,27.0,-100.00,WNW,283,5.0,8.0,85,0.00,,,0.00,12.000000,,2013-01-17 15:53:00,
2013-01-17 11:03:00,31.0,27.0,-100.00,WNW,283,5.0,8.0,85,0.00,,,0.00,12.000000,,2013-01-17 16:03:00,
2013-01-17 11:34:00,33.0,28.0,-100.00,WNW,286,5.0,11.0,81,0.00,,,0.00,27.000000,,2013-01-17 16:34:00,
2013-01-17 11:44:00,33.0,28.0,-100.00,WNW,286,5.0,11.0,81,0.00,,,0.00,27.000000,,2013-01-17 16:44:00,
2013-01-17 11:53:00,33.0,28.0,-100.00,WNW,286,5.0,11.0,81,0.00,,,0.00,27.000000,,2013-01-17 16:53:00,
2013-01-17 12:03:00,33.0,28.0,-100.00,WNW,286,5.0,11.0,81,0.00,,,0.00,27.000000,,2013-01-17 17:03:00,
2013-01-17 12:33:00,35.0,27.0,-100.00,WNW,298,5.0,11.0,73,0.00,,,0.00,47.000000,,2013-01-17 17:33:00,
2013-01-17 12:43:00,35.0,27.0,-100.00,WNW,298,5.0,11.0,73,0.00,,,0.00,47.000000,,2013-01-17 17:43:00,
2013-01-17 12:54:00,35.0,27.0,-100.00,WNW,298,5.0,11.0,73,0.00,,,0.00,47.000000,,2013-01-17 17:54:00,
2013-01-17 13:04:00,35.0,27.0,-100.00,WNW,298,5.0,11.0,73,0.00,,,0.00,47.000000,,2013-01-17 18:04:00,
2013-01-17 13:34:00,35.0,26.0,-100.00,NW,306,5.0,11.0,70,0.00,,,0.00,48.000000,,2013-01-17 18:34:00,
2013-01-17 13:44:00,35.0,26.0,-100.00,NW,306,5.0,11.0,70,0.00,,,0.00,48.000000,,2013-01-17 18:44:00,
2013-01-17 13:54:00,35.0,26.0,-100.00,NW,306,5.0,11.0,70,0.00,,,0.00,48.000000,,2013-01-17 18:54:00,
2013-01-17 14:04:00,35.0,26.0,-100.00,NW,306,5.0,11.0,70,0.00,,,0.00,48.000000,,2013-01-17 19:04:00,
2013-01-17 14:33:00,35.0,26.0,-100.00,West,281,4.0,11.0,70,0.00,,,0.00,34.000000,,2013-01-17 19:33:00,
2013-01-17 14:43:00,35.0,26.0,-100.00,West,281,4.0,11.0,70,0.00,,,0.00,34.000000,,2013-01-17 19:43:00,
2013-01-17 14:54:00,35.0,26.0,-100.00,West,281,4.0,11.0,70,0.00,,,0.00,34.000000,,2013-01-17 19:54:00,
2013-01-17 15:03:00,35.0,26.0,-100.00,West,281,4.0,11.0,70,0.00,,,0.00,34.000000,,2013-01-17 20:03:00,
2013-01-17 15:33:00,34.0,26.0,-100.00,WNW,292,3.0,8.0,71,0.01,,,0.01,30.000000,,2013-01-17 20:33:00,
2013-01-17 15:43:00,34.0,26.0,-100.00,WNW,292,3.0,8.0,71,0.01,,,0.01,30.000000,,2013-01-17 20:43:00,
2013-01-17 15:54:00,34.0,26.0,-100.00,WNW,292,3.0,8.0,71,0.01,,,0.01,30.000000,,2013-01-17 20:54:00,
2013-01-17 16:03:00,34.0,26.0,-100.00,WNW,292,3.0,8.0,71,0.01,,,0.01,30.000000,,2013-01-17 21:03:00,
2013-01-17 16:34:00,32.0,25.0,-100.00,WNW,303,3.0,9.0,74,0.04,,,0.05,17.000000,,2013-01-17 21:34:00,
2013-01-17 16:43:00,32.0,25.0,-100.00,WNW,303,3.0,9.0,74,0.04,,,0.05,17.000000,,2013-01-17 21:43:00,
2013-01-17 16:53:00,32.0,25.0,-100.00,WNW,303,3.0,9.0,74,0.04,,,0.05,17.000000,,2013-01-17 21:53:00,
2013-01-17 17:04:00,32.0,25.0,-100.00,WNW,303,3.0,9.0,74,0.04,,,0.05,17.000000,,2013-01-17 22:04:00,
2013-01-17 17:33:00,31.0,25.0,-100.00,WNW,291,4.0,7.0,79,0.00,,,0.05,4.000000,,2013-01-17 22:33:00,
2013-01-17 17:43:00,31.0,25.0,-100.00,WNW,291,4.0,7.0,79,0.00,,,0.05,4.000000,,2013-01-17 22:43:00,
2013-01-17 17:53:00,31.0,25.0,-100.00,WNW,291,4.0,7.0,79,0.00,,,0.05,4.000000,,2013-01-17 22:53:00,
2013-01-17 18:03:00,31.0,25.0,-100.00,WNW,291,4.0,7.0,79,0.00,,,0.05,4.000000,,2013-01-17 23:03:00,
2013-01-17 18:33:00,30.0,24.0,-100.00,WNW,294,4.0,9.0,79,0.00,,,0.05,0.000000,,2013-01-17 23:33:00,
2013-01-17 18:43:00,30.0,24.0,-100.00,WNW,294,4.0,9.0,79,0.00,,,0.05,0.000000,,2013-01-17 23:43:00,
2013-01-17 18:53:00,30.0,24.0,-100.00,WNW,294,4.0,9.0,79,0.00,,,0.05,0.000000,,2013-01-17 23:53:00,
2013-01-17 19:03:00,30.0,24.0,-100.00,WNW,294,4.0,9.0,79,0.00,,,0.05,0.000000,,2013-01-18 00:03:00,
2013-01-17 19:33:00,30.0,25.0,-100.00,WNW,300,4.0,7.0,80,0.00,,,0.05,0.000000,,2013-01-18 00:33:00,
2013-01-17 19:43:00,30.0,25.0,-100.00,WNW,300,4.0,7.0,80,0.00,,,0.05,0.000000,,2013-01-18 00:43:00,
2013-01-17 19:53:00,30.0,25.0,-100.00,WNW,300,4.0,7.0,80,0.00,,,0.05,0.000000,,2013-01-18 00:53:00,
2013-01-17 20:03:00,30.0,25.0,-100.00,WNW,300,4.0,7.0,80,0.00,,,0.05,0.000000,,2013-01-18 01:03:00,
2013-01-17 20:33:00,29.0,24.0,-100.00,WNW,297,4.0,7.0,82,0.00,,,0.05,0.000000,,2013-01-18 01:33:00,
2013-01-17 20:43:00,29.0,24.0,-100.00,WNW,297,4.0,7.0,82,0.00,,,0.05,0.000000,,2013-01-18 01:43:00,
2013-01-17 20:53:00,29.0,24.0,-100.00,WNW,297,4.0,7.0,82,0.00,,,0.05,0.000000,,2013-01-18 01:53:00,
2013-01-17 21:03:00,29.0,24.0,-100.00,WNW,297,4.0,7.0,82,0.00,,,0.05,0.000000,,2013-01-18 02:03:00,
2013-01-17 21:33:00,29.0,24.0,-100.00,WNW,299,4.0,8.0,82,0.00,,,0.05,0.000000,,2013-01-18 02:33:00,
2013-01-17 21:43:00,29.0,24.0,-100.00,WNW,299,4.0,8.0,82,0.00,,,0.05,0.000000,,2013-01-18 02:43:00,
2013-01-17 21:53:00,29.0,24.0,-100.00,WNW,299,4.0,8.0,82,0.00,,,0.05,0.000000,,2013-01-18 02:53:00,
2013-01-17 22:02:00,29.0,24.0,-100.00,WNW,299,4.0,8.0,82,0.00,,,0.05,0.000000,,2013-01-18 03:02:00,
2013-01-17 22:33:00,29.0,24.0,-100.00,WNW,295,4.0,8.0,81,0.00,,,0.05,0.000000,,2013-01-18 03:33:00,
2013-01-17 22:43:00,29.0,24.0,-100.00,WNW,295,4.0,8.0,81,0.00,,,0.05,0.000000,,2013-01-18 03:43:00,
2013-01-17 22:53:00,29.0,24.0,-100.00,WNW,295,4.0,8.0,81,0.00,,,0.05,0.000000,,2013-01-18 03:53:00,
2013-01-17 23:02:00,29.0,24.0,-100.00,WNW,295,4.0,8.0,81,0.00,,,0.05,0.000000,,2013-01-18 04:02:00,
2013-01-17 23:33:00,29.0,24.0,-100.00,WNW,300,4.0,10.0,81,0.00,,,0.05,0.000000,,2013-01-18 04:33:00,
2013-01-17 23:43:00,29.0,24.0,-100.00,WNW,300,4.0,10.0,81,0.00,,,0.05,0.000000,,2013-01-18 04:43:00,
2013-01-17 23:53:00,29.0,24.0,-100.00,WNW,300,4.0,10.0,81,0.00,,,0.05,0.000000,,2013-01-18 04:53:00,